Time;durP1;ratioP1;P1;durP2;ratioP2;P2;SDS_P1;SDS_P2;PMS_P1;PMS_P2;Temp;Humidity;BMP_temperature;BMP_pressure;BME280_temperature;BME280_humidity;BME280_pressure;Samples;Min_cycle;Max_cycle;Signal;HPM_P1;HPM_P2
2022/08/10 00:00:59;;;;;;;4.18;2.42;;;17.30;99.90;;;;;;5010645;28;20042;-42
2022/08/10 00:03:24;;;;;;;4.38;2.75;;;17.20;99.90;;;;;;5010524;28;20045;-43
2022/08/10 00:05:53;;;;;;;3.75;2.50;;;17.20;99.90;;;;;;5010637;28;20038;-43
2022/08/10 00:08:20;;;;;;;5.03;3.00;;;17.20;99.90;;;;;;5011104;28;20050;-45
2022/08/10 00:10:46;;;;;;;5.35;3.00;;;17.10;99.90;;;;;;5010441;28;20073;-44
2022/08/10 00:13:11;;;;;;;4.03;2.60;;;17.20;99.90;;;;;;5011118;28;20088;-42
2022/08/10 00:15:37;;;;;;;3.92;2.78;;;17.10;99.90;;;;;;5010824;28;20152;-44
2022/08/10 00:18:03;;;;;;;4.88;3.20;;;17.10;99.90;;;;;;4992452;28;20171;-45
2022/08/10 00:20:28;;;;;;;5.28;2.90;;;17.00;99.90;;;;;;4990845;28;20054;-44
2022/08/10 00:22:54;;;;;;;4.07;2.92;;;17.00;99.90;;;;;;4991380;28;20050;-43
2022/08/10 00:25:20;;;;;;;4.63;3.15;;;17.00;99.90;;;;;;4991145;28;20125;-48
2022/08/10 00:27:45;;;;;;;4.43;3.20;;;17.10;99.90;;;;;;5002949;28;20423;-45
2022/08/10 00:30:11;;;;;;;4.15;3.35;;;17.10;99.90;;;;;;5014485;28;20413;-42
2022/08/10 00:32:37;;;;;;;6.60;3.10;;;17.00;99.90;;;;;;5011266;28;20034;-47
2022/08/10 00:35:03;;;;;;;5.45;3.50;;;17.00;99.90;;;;;;4998906;28;20049;-42
2022/08/10 00:37:29;;;;;;;4.55;3.13;;;17.00;99.90;;;;;;5013472;28;20034;-45
2022/08/10 00:39:54;;;;;;;5.20;3.35;;;17.10;99.90;;;;;;5012103;28;20129;-48
2022/08/10 00:42:20;;;;;;;5.22;3.42;;;17.00;99.90;;;;;;5011896;28;20448;-44
2022/08/10 00:44:52;;;;;;;5.53;3.60;;;17.10;99.90;;;;;;4996048;28;20053;-46
2022/08/10 00:47:18;;;;;;;5.03;3.72;;;16.90;99.90;;;;;;5012160;28;20077;-44
2022/08/10 00:49:44;;;;;;;5.68;3.58;;;16.90;99.90;;;;;;5013502;28;20048;-44
2022/08/10 00:52:12;;;;;;;4.57;3.78;;;16.80;99.90;;;;;;5014219;28;20037;-42
2022/08/10 00:54:41;;;;;;;6.10;3.92;;;16.80;99.90;;;;;;5014309;28;20077;-44
2022/08/10 00:57:07;;;;;;;5.38;3.85;;;16.70;99.90;;;;;;5013892;28;20033;-45
2022/08/10 00:59:33;;;;;;;6.47;4.20;;;16.80;99.90;;;;;;5014059;28;20091;-46
2022/08/10 01:02:00;;;;;;;6.80;4.63;;;16.70;99.90;;;;;;5013768;28;20054;-44
2022/08/10 01:04:26;;;;;;;5.50;4.22;;;16.90;99.90;;;;;;5013530;28;20148;-44
2022/08/10 01:07:06;;;;;;;5.72;4.18;;;16.70;99.90;;;;;;5014294;28;20046;-47
2022/08/10 01:09:58;;;;;;;4.85;3.80;;;16.70;99.90;;;;;;4995557;28;20385;-42
2022/08/10 01:12:33;;;;;;;4.80;3.78;;;16.70;99.90;;;;;;4997843;28;20042;-46
2022/08/10 01:15:07;;;;;;;5.57;4.32;;;16.60;99.90;;;;;;5009679;28;20038;-45
2022/08/10 01:17:39;;;;;;;5.85;4.90;;;16.60;99.90;;;;;;5013043;28;20088;-42
2022/08/10 01:20:42;;;;;;;5.40;4.53;;;16.60;99.90;;;;;;5012533;28;20038;-48
2022/08/10 01:23:29;;;;;;;5.63;4.53;;;16.50;99.90;;;;;;5006815;28;20421;-47
2022/08/10 01:26:13;;;;;;;5.78;4.65;;;16.50;99.90;;;;;;5013591;28;20037;-44
2022/08/10 01:29:16;;;;;;;6.45;4.90;;;16.50;99.90;;;;;;5013541;28;20088;-46
2022/08/10 01:31:48;;;;;;;5.68;4.70;;;16.50;99.90;;;;;;5013783;28;20050;-46
2022/08/10 01:34:24;;;;;;;6.97;5.18;;;16.50;99.90;;;;;;5012335;28;20033;-48
2022/08/10 01:37:02;;;;;;;6.13;5.10;;;16.60;99.90;;;;;;5013050;28;20069;-43
2022/08/10 01:39:35;;;;;;;6.43;5.00;;;16.50;99.90;;;;;;4994385;28;20038;-46
2022/08/10 01:42:02;;;;;;;6.22;5.13;;;16.40;99.90;;;;;;5003568;28;20046;-44
2022/08/10 01:44:43;;;;;;;6.07;4.93;;;16.30;99.90;;;;;;4993946;28;20070;-49
2022/08/10 01:50:03;;;;;;;7.00;5.68;;;16.40;99.90;;;;;;5013306;28;20049;-45
2022/08/10 01:52:31;;;;;;;6.63;5.25;;;16.30;99.90;;;;;;5012171;28;20037;-45
2022/08/10 01:54:57;;;;;;;8.05;5.95;;;16.30;99.90;;;;;;5013234;28;20100;-44
2022/08/10 01:57:26;;;;;;;6.50;5.43;;;16.30;99.90;;;;;;5011274;28;20088;-45
2022/08/10 01:59:55;;;;;;;7.45;5.55;;;16.30;99.90;;;;;;5012903;28;20034;-44
2022/08/10 02:02:22;;;;;;;6.75;5.80;;;16.20;99.90;;;;;;5012972;28;20034;-50
2022/08/10 02:04:49;;;;;;;8.00;5.70;;;16.10;99.90;;;;;;5012505;28;20103;-46
2022/08/10 02:07:22;;;;;;;8.55;6.38;;;16.00;99.90;;;;;;5012862;28;20092;-44
2022/08/10 02:09:52;;;;;;;7.47;6.50;;;16.10;99.90;;;;;;5012103;28;20046;-45
2022/08/10 02:12:21;;;;;;;9.68;6.47;;;16.10;99.90;;;;;;5011790;28;20042;-44
2022/08/10 02:14:54;;;;;;;7.10;5.70;;;16.10;99.90;;;;;;5012710;28;20262;-42
2022/08/10 02:17:25;;;;;;;7.28;6.05;;;16.10;99.90;;;;;;5012624;28;20124;-44
2022/08/10 02:19:53;;;;;;;6.93;6.15;;;16.10;99.90;;;;;;5012523;28;20113;-44
2022/08/10 02:22:20;;;;;;;8.32;6.53;;;16.00;99.90;;;;;;5011106;28;20209;-45
2022/08/10 02:24:47;;;;;;;8.80;6.47;;;16.10;99.90;;;;;;5012328;28;20045;-46
2022/08/10 02:27:14;;;;;;;7.88;6.90;;;16.00;99.90;;;;;;5011507;28;20091;-45
2022/08/10 02:29:43;;;;;;;7.88;6.75;;;16.00;99.90;;;;;;5012419;28;20245;-45
2022/08/10 02:32:11;;;;;;;8.50;6.35;;;15.90;99.90;;;;;;5011525;28;20485;-44
2022/08/10 02:34:39;;;;;;;8.07;6.47;;;15.90;99.90;;;;;;5011752;28;20026;-43
2022/08/10 02:37:06;;;;;;;7.63;6.53;;;15.70;99.90;;;;;;5012083;28;20053;-46
2022/08/10 02:39:34;;;;;;;8.75;7.78;;;15.70;99.90;;;;;;4993939;28;20038;-43
2022/08/10 02:42:05;;;;;;;8.23;6.72;;;15.70;99.90;;;;;;5011928;28;20056;-45
2022/08/10 02:45:15;;;;;;;8.43;6.85;;;15.70;99.90;;;;;;5012139;28;20045;-43
2022/08/10 02:47:51;;;;;;;9.57;7.53;;;15.70;99.90;;;;;;4978230;28;20050;-45
2022/08/10 02:50:30;;;;;;;8.57;7.30;;;15.70;99.90;;;;;;5011100;28;20111;-45
2022/08/10 02:53:11;;;;;;;9.38;7.15;;;15.60;99.90;;;;;;5011080;28;20090;-47
2022/08/10 02:55:48;;;;;;;8.73;7.10;;;15.60;99.90;;;;;;5007498;28;20046;-46
2022/08/10 02:58:32;;;;;;;9.05;7.57;;;15.60;99.90;;;;;;4992403;28;20093;-45
2022/08/10 03:01:02;;;;;;;8.63;7.70;;;15.60;99.90;;;;;;4992240;28;20045;-42
2022/08/10 03:03:37;;;;;;;10.60;8.00;;;15.60;99.90;;;;;;5000422;28;20038;-44
2022/08/10 03:06:09;;;;;;;10.65;8.45;;;15.60;99.90;;;;;;4996904;28;20077;-45
2022/08/10 03:08:41;;;;;;;8.98;8.05;;;15.60;99.90;;;;;;5010861;28;20100;-43
2022/08/10 03:11:13;;;;;;;9.10;8.07;;;15.60;99.90;;;;;;5010752;28;20034;-42
2022/08/10 03:13:39;;;;;;;9.48;8.20;;;15.50;99.90;;;;;;4993445;28;20048;-44
2022/08/10 03:16:06;;;;;;;9.93;8.63;;;15.40;99.90;;;;;;4991778;28;20045;-46
2022/08/10 03:18:33;;;;;;;11.32;9.15;;;15.50;99.90;;;;;;5010504;28;20049;-45
2022/08/10 03:20:59;;;;;;;9.63;8.00;;;15.50;99.90;;;;;;5011167;28;20135;-47
2022/08/10 03:23:26;;;;;;;9.88;8.50;;;15.50;99.90;;;;;;5011356;28;20090;-43
2022/08/10 03:25:58;;;;;;;10.02;8.77;;;15.50;99.90;;;;;;5011563;28;20041;-45
2022/08/10 03:28:29;;;;;;;11.30;9.18;;;15.30;99.90;;;;;;4992873;28;20073;-44
2022/08/10 03:30:56;;;;;;;10.30;8.77;;;15.40;99.90;;;;;;5011371;28;20120;-42
2022/08/10 03:33:25;;;;;;;11.00;9.07;;;15.40;99.90;;;;;;5010967;28;20109;-45
2022/08/10 03:35:51;;;;;;;10.98;9.48;;;15.40;99.90;;;;;;5010498;28;20095;-43
2022/08/10 03:38:16;;;;;;;9.82;8.82;;;15.30;99.90;;;;;;5011055;28;20049;-45
2022/08/10 03:40:45;;;;;;;12.25;9.50;;;15.30;99.90;;;;;;5011309;28;20038;-43
2022/08/10 03:43:15;;;;;;;12.35;9.73;;;15.30;99.90;;;;;;5010825;28;20042;-47
2022/08/10 03:45:41;;;;;;;11.20;8.80;;;15.40;99.90;;;;;;4991283;28;20042;-42
2022/08/10 03:48:09;;;;;;;11.15;9.95;;;15.30;99.90;;;;;;4991327;28;20050;-47
2022/08/10 03:50:36;;;;;;;11.45;9.95;;;15.30;99.90;;;;;;4991442;28;20046;-44
2022/08/10 03:53:02;;;;;;;12.32;9.30;;;15.40;99.90;;;;;;4991259;28;20073;-47
2022/08/10 03:55:29;;;;;;;11.15;9.40;;;15.30;99.90;;;;;;4991469;28;20080;-42
2022/08/10 03:57:54;;;;;;;13.88;10.23;;;15.20;99.90;;;;;;5010913;28;20490;-45
2022/08/10 04:00:20;;;;;;;12.43;9.75;;;15.20;99.90;;;;;;5010147;28;20049;-47
2022/08/10 04:02:48;;;;;;;11.73;9.93;;;15.30;99.90;;;;;;5011055;28;20164;-46
2022/08/10 04:05:17;;;;;;;11.95;9.65;;;15.30;99.90;;;;;;5010512;28;20088;-44
2022/08/10 04:07:43;;;;;;;11.48;9.65;;;15.20;99.90;;;;;;5010725;28;20045;-46
2022/08/10 04:10:09;;;;;;;11.40;9.95;;;15.20;99.90;;;;;;5010628;28;20048;-42
2022/08/10 04:12:35;;;;;;;11.98;10.15;;;15.20;99.90;;;;;;5010995;28;20502;-45
2022/08/10 04:15:01;;;;;;;13.73;10.13;;;15.20;99.90;;;;;;5002953;28;20043;-46
2022/08/10 04:17:27;;;;;;;10.98;9.35;;;15.20;99.90;;;;;;4991196;28;20043;-44
2022/08/10 04:19:55;;;;;;;12.82;10.70;;;15.30;99.90;;;;;;4991376;28;20030;-44
2022/08/10 04:22:22;;;;;;;10.57;9.07;;;15.20;99.90;;;;;;4991098;28;20046;-44
2022/08/10 04:24:54;;;;;;;12.10;10.00;;;15.30;99.90;;;;;;5004888;28;20030;-44
2022/08/10 04:27:20;;;;;;;13.32;10.63;;;15.30;99.90;;;;;;5009882;28;20089;-44
2022/08/10 04:29:47;;;;;;;12.48;10.68;;;15.20;99.90;;;;;;5010475;28;20045;-43
2022/08/10 04:32:18;;;;;;;12.23;10.45;;;15.20;99.90;;;;;;5010777;28;20346;-47
2022/08/10 04:34:44;;;;;;;13.10;10.05;;;15.30;99.90;;;;;;5010387;28;20038;-47
2022/08/10 04:37:11;;;;;;;11.55;10.27;;;15.10;99.90;;;;;;5010960;28;20041;-44
2022/08/10 04:39:38;;;;;;;12.43;10.70;;;15.20;99.90;;;;;;5010329;28;20034;-45
2022/08/10 04:42:04;;;;;;;12.10;10.13;;;15.20;99.90;;;;;;5010970;28;20038;-44
2022/08/10 04:44:31;;;;;;;12.73;10.80;;;15.20;99.90;;;;;;4991255;28;20498;-43
2022/08/10 04:46:57;;;;;;;12.48;10.55;;;15.30;99.90;;;;;;4990834;28;20041;-44
2022/08/10 04:49:23;;;;;;;13.98;10.55;;;15.30;99.90;;;;;;4991319;28;20046;-44
2022/08/10 04:51:48;;;;;;;12.15;10.70;;;15.20;99.90;;;;;;4990824;28;20363;-45
2022/08/10 04:54:14;;;;;;;13.57;10.20;;;15.30;99.90;;;;;;4973354;28;20084;-45
2022/08/10 04:56:40;;;;;;;13.00;10.15;;;15.30;99.90;;;;;;4992131;28;20371;-43
2022/08/10 04:59:07;;;;;;;13.13;10.50;;;15.30;99.90;;;;;;4990849;28;20058;-45
2022/08/10 05:01:34;;;;;;;12.73;9.93;;;15.20;99.90;;;;;;4991744;28;20050;-44
2022/08/10 05:04:01;;;;;;;13.10;10.65;;;15.30;99.90;;;;;;4992326;28;20501;-44
2022/08/10 05:06:27;;;;;;;11.65;10.05;;;15.20;99.90;;;;;;5010314;28;20038;-43
2022/08/10 05:08:52;;;;;;;16.25;10.95;;;15.40;99.90;;;;;;5001429;28;20048;-45
2022/08/10 05:11:18;;;;;;;12.20;10.90;;;15.30;99.90;;;;;;4990826;28;20041;-45
2022/08/10 05:13:43;;;;;;;16.10;10.80;;;15.30;99.90;;;;;;4992879;28;20037;-44
2022/08/10 05:16:09;;;;;;;14.57;11.05;;;15.30;99.90;;;;;;4994385;28;20034;-43
2022/08/10 05:18:35;;;;;;;11.95;10.35;;;15.40;99.90;;;;;;4994317;28;20042;-46
2022/08/10 05:21:01;;;;;;;14.63;10.63;;;15.40;99.90;;;;;;4993980;28;20532;-45
2022/08/10 05:23:27;;;;;;;13.80;10.77;;;15.40;99.90;;;;;;4994008;28;20064;-45
2022/08/10 05:25:52;;;;;;;14.82;10.30;;;15.50;99.90;;;;;;5012795;28;20049;-47
2022/08/10 05:28:18;;;;;;;14.43;11.02;;;15.50;99.90;;;;;;5013733;28;20037;-45
2022/08/10 05:30:44;;;;;;;11.52;9.88;;;15.50;99.90;;;;;;5013425;28;20153;-47
2022/08/10 05:33:09;;;;;;;12.88;10.63;;;15.60;99.90;;;;;;5013685;28;20042;-45
2022/08/10 05:35:37;;;;;;;14.70;11.02;;;15.60;99.90;;;;;;5013056;28;20038;-43
2022/08/10 05:38:04;;;;;;;11.93;9.88;;;15.60;99.90;;;;;;5013284;28;20438;-43
2022/08/10 05:40:30;;;;;;;12.27;10.73;;;15.80;99.90;;;;;;5013105;28;20091;-46
2022/08/10 05:42:56;;;;;;;13.85;9.77;;;15.80;99.90;;;;;;5013573;28;20065;-45
2022/08/10 05:45:26;;;;;;;14.80;10.05;;;15.90;99.90;;;;;;5013128;28;20080;-45
2022/08/10 05:47:52;;;;;;;11.43;9.90;;;16.10;99.90;;;;;;5013299;28;20042;-47
2022/08/10 05:50:22;;;;;;;11.20;9.23;;;16.20;99.90;;;;;;5013392;28;20041;-44
2022/08/10 05:52:48;;;;;;;10.95;9.55;;;16.20;99.90;;;;;;5013138;28;20045;-46
2022/08/10 05:55:14;;;;;;;11.75;9.13;;;16.10;99.90;;;;;;5013226;28;20121;-45
2022/08/10 05:57:41;;;;;;;13.18;9.27;;;16.20;99.90;;;;;;5013183;28;20184;-47
2022/08/10 06:00:10;;;;;;;11.65;9.07;;;16.10;99.90;;;;;;5011966;28;20038;-47
2022/08/10 06:02:40;;;;;;;12.38;9.73;;;16.30;99.90;;;;;;5013057;28;20049;-45
2022/08/10 06:05:09;;;;;;;11.05;8.98;;;16.30;99.90;;;;;;5012749;28;20484;-43
2022/08/10 06:07:39;;;;;;;13.35;8.85;;;16.40;99.90;;;;;;5011946;28;20030;-45
2022/08/10 06:10:08;;;;;;;12.25;9.30;;;16.40;99.90;;;;;;5011271;28;20060;-44
2022/08/10 06:12:36;;;;;;;11.30;8.73;;;16.40;99.90;;;;;;5012738;28;20390;-44
2022/08/10 06:15:02;;;;;;;12.93;8.88;;;16.60;99.90;;;;;;5011877;28;20052;-43
2022/08/10 06:17:29;;;;;;;12.10;8.98;;;16.60;99.90;;;;;;5012487;28;20111;-44
2022/08/10 06:19:56;;;;;;;9.90;8.65;;;16.70;99.90;;;;;;5012526;28;20125;-47
2022/08/10 06:22:24;;;;;;;13.23;8.68;;;16.70;99.90;;;;;;5012698;28;20119;-44
2022/08/10 06:24:51;;;;;;;15.57;9.35;;;16.70;99.90;;;;;;4994508;28;20045;-48
2022/08/10 06:27:17;;;;;;;11.80;8.77;;;16.70;99.90;;;;;;5012616;28;20444;-42
2022/08/10 06:29:44;;;;;;;9.60;8.13;;;16.80;99.90;;;;;;5010848;28;20046;-48
2022/08/10 06:32:11;;;;;;;11.98;8.50;;;16.90;99.90;;;;;;5001553;28;20050;-47
2022/08/10 06:34:38;;;;;;;9.60;8.23;;;16.90;99.90;;;;;;4992687;28;20552;-45
2022/08/10 06:37:06;;;;;;;10.93;8.02;;;17.00;99.90;;;;;;4992801;28;20481;-44
2022/08/10 06:39:32;;;;;;;10.98;8.50;;;17.10;99.90;;;;;;4992671;28;20425;-44
2022/08/10 06:42:07;;;;;;;10.00;7.32;;;17.20;99.90;;;;;;5012879;28;20073;-45
2022/08/10 06:44:38;;;;;;;9.57;7.03;;;17.30;99.90;;;;;;5012664;28;20042;-43
2022/08/10 06:47:10;;;;;;;9.77;7.15;;;17.30;99.90;;;;;;4994893;28;20040;-45
2022/08/10 06:49:37;;;;;;;9.55;7.25;;;17.40;99.90;;;;;;5011023;28;20038;-47
2022/08/10 06:52:06;;;;;;;10.10;7.13;;;17.40;99.90;;;;;;5011099;28;20034;-46
2022/08/10 06:54:32;;;;;;;8.63;6.88;;;17.50;99.90;;;;;;5010177;28;20045;-44
2022/08/10 06:57:00;;;;;;;9.00;7.28;;;17.50;99.90;;;;;;5001914;28;20050;-47
2022/08/10 06:59:43;;;;;;;8.13;6.55;;;17.60;99.90;;;;;;5010249;28;20034;-46
2022/08/10 07:02:11;;;;;;;9.90;7.05;;;17.70;99.90;;;;;;5008822;28;20068;-45
2022/08/10 07:04:51;;;;;;;9.38;6.90;;;17.80;99.90;;;;;;5009160;28;20481;-47
2022/08/10 07:07:21;;;;;;;8.40;6.25;;;17.80;99.90;;;;;;5007671;28;20056;-43
2022/08/10 07:09:48;;;;;;;8.95;6.20;;;17.90;99.90;;;;;;5008971;28;20046;-44
2022/08/10 07:12:14;;;;;;;9.85;6.65;;;17.90;99.90;;;;;;5007460;28;20052;-45
2022/08/10 07:14:45;;;;;;;8.65;6.30;;;18.00;99.90;;;;;;5008862;28;20141;-45
2022/08/10 07:17:18;;;;;;;9.05;6.60;;;18.00;99.90;;;;;;5007768;28;20041;-47
2022/08/10 07:19:47;;;;;;;11.38;6.60;;;18.10;99.90;;;;;;5007763;28;20048;-43
2022/08/10 07:22:15;;;;;;;8.32;6.03;;;18.10;99.90;;;;;;5007482;28;20536;-45
2022/08/10 07:24:43;;;;;;;8.98;6.18;;;18.30;99.90;;;;;;5007818;28;20042;-49
2022/08/10 07:27:10;;;;;;;7.63;5.90;;;18.40;99.90;;;;;;5007291;28;20129;-44
2022/08/10 07:29:38;;;;;;;9.27;5.75;;;18.30;99.90;;;;;;5007604;28;20065;-46
2022/08/10 07:32:05;;;;;;;7.93;5.65;;;18.30;99.90;;;;;;5006041;28;20040;-46
2022/08/10 07:34:34;;;;;;;7.70;5.60;;;18.50;99.90;;;;;;5006715;28;20046;-44
2022/08/10 07:37:03;;;;;;;9.75;6.78;;;18.60;99.90;;;;;;5004600;28;20084;-48
2022/08/10 07:39:32;;;;;;;7.32;5.80;;;18.70;99.90;;;;;;5001253;28;20326;-45
2022/08/10 07:41:59;;;;;;;9.13;6.05;;;18.80;99.90;;;;;;4999618;28;20045;-46
2022/08/10 07:44:28;;;;;;;7.90;5.50;;;18.90;99.90;;;;;;5006964;28;20042;-44
2022/08/10 07:46:57;;;;;;;8.23;5.43;;;19.00;99.90;;;;;;5004830;28;20096;-45
2022/08/10 07:49:25;;;;;;;10.77;5.88;;;18.90;99.90;;;;;;5006931;28;20371;-44
2022/08/10 07:51:52;;;;;;;8.13;5.53;;;19.00;99.90;;;;;;5008998;28;20051;-46
2022/08/10 07:54:21;;;;;;;7.93;5.10;;;19.10;99.90;;;;;;5007384;28;20417;-44
2022/08/10 07:56:51;;;;;;;9.88;5.63;;;19.10;99.90;;;;;;5007119;28;20100;-46
2022/08/10 07:59:22;;;;;;;8.52;5.85;;;19.20;99.90;;;;;;5006754;28;20354;-46
2022/08/10 08:01:54;;;;;;;7.40;5.22;;;19.20;99.90;;;;;;5007723;28;20045;-45
2022/08/10 08:04:23;;;;;;;6.43;5.00;;;19.30;99.90;;;;;;5007192;28;20046;-49
2022/08/10 08:06:50;;;;;;;6.22;4.68;;;19.40;99.90;;;;;;5006652;28;20088;-47
2022/08/10 08:09:18;;;;;;;7.93;4.47;;;19.40;99.90;;;;;;4974789;28;20034;-47
2022/08/10 08:11:46;;;;;;;6.25;4.70;;;19.40;99.90;;;;;;5005533;28;20148;-45
2022/08/10 08:14:14;;;;;;;9.73;4.75;;;19.60;99.90;;;;;;5003327;28;20538;-45
2022/08/10 08:16:44;;;;;;;7.40;4.28;;;19.60;99.90;;;;;;5004764;28;20081;-46
2022/08/10 08:19:11;;;;;;;6.60;4.47;;;19.60;99.90;;;;;;5002024;28;20060;-45
2022/08/10 08:21:38;;;;;;;7.35;4.40;;;19.70;99.90;;;;;;4998731;28;20047;-47
2022/08/10 08:24:05;;;;;;;7.57;4.40;;;19.80;99.90;;;;;;5001668;28;20093;-47
2022/08/10 08:26:32;;;;;;;8.50;4.15;;;20.00;99.90;;;;;;4998164;28;20045;-43
2022/08/10 08:28:59;;;;;;;7.03;4.60;;;20.10;99.90;;;;;;4979464;28;20046;-44
2022/08/10 08:31:25;;;;;;;7.30;4.50;;;20.30;99.90;;;;;;5007514;28;20034;-44
2022/08/10 08:33:53;;;;;;;5.53;4.18;;;20.40;99.90;;;;;;5006784;28;20375;-46
2022/08/10 08:36:20;;;;;;;7.43;3.97;;;20.50;99.90;;;;;;5006447;28;20033;-44
2022/08/10 08:38:47;;;;;;;6.65;3.80;;;20.60;99.90;;;;;;4988181;28;20085;-46
2022/08/10 08:41:42;;;;;;;4.90;3.42;;;20.60;99.90;;;;;;5008268;28;20072;-45
2022/08/10 08:44:08;;;;;;;7.13;3.53;;;20.70;99.90;;;;;;4955707;28;20140;-44
2022/08/10 08:46:55;;;;;;;5.88;3.60;;;20.70;99.90;;;;;;5007991;28;20599;-45
2022/08/10 08:49:23;;;;;;;7.43;3.50;;;20.90;99.90;;;;;;5011089;28;20038;-47
2022/08/10 08:52:30;;;;;;;6.82;3.30;;;20.90;99.90;;;;;;5012335;28;20042;-43
2022/08/10 08:55:30;;;;;;;5.60;3.35;;;21.10;99.90;;;;;;5010936;28;20041;-45
2022/08/10 08:58:01;;;;;;;5.55;3.25;;;21.30;99.90;;;;;;5011717;28;20397;-47
2022/08/10 09:00:49;;;;;;;5.00;3.00;;;21.40;99.90;;;;;;5011811;28;20038;-46
2022/08/10 09:03:32;;;;;;;5.10;2.88;;;21.50;99.90;;;;;;4996996;28;20038;-42
2022/08/10 09:06:20;;;;;;;6.75;2.80;;;21.70;99.90;;;;;;5013236;28;20073;-45
2022/08/10 09:09:31;;;;;;;4.93;2.80;;;22.00;99.90;;;;;;5013855;28;20140;-46
2022/08/10 09:12:05;;;;;;;3.85;2.33;;;22.20;99.90;;;;;;4995491;28;20096;-46
2022/08/10 09:14:39;;;;;;;4.57;2.47;;;22.60;99.90;;;;;;4994360;28;20077;-45
2022/08/10 09:17:27;;;;;;;5.60;2.42;;;22.70;99.90;;;;;;5013178;28;20040;-43
2022/08/10 09:20:12;;;;;;;4.45;2.40;;;23.00;99.90;;;;;;5011901;28;20049;-44
2022/08/10 09:22:56;;;;;;;;;;;23.00;99.90;;;;;;4996088;28;20418;-44
2022/08/10 09:25:33;;;;;;;5.07;2.10;;;23.40;99.90;;;;;;5001799;28;19952;-48
2022/08/10 09:28:13;;;;;;;4.47;1.92;;;23.50;99.90;;;;;;5013319;28;20320;-44
2022/08/10 09:31:04;;;;;;;6.47;2.38;;;23.60;99.90;;;;;;5010887;28;20029;-46
2022/08/10 09:33:46;;;;;;;6.03;2.30;;;23.80;99.90;;;;;;5008493;28;20076;-45
2022/08/10 09:36:21;;;;;;;5.95;2.30;;;24.00;99.90;;;;;;5010921;28;20079;-47
2022/08/10 09:38:56;;;;;;;4.25;1.95;;;24.20;99.90;;;;;;5015223;28;20571;-44
2022/08/10 09:41:48;;;;;;;3.45;1.73;;;24.30;99.90;;;;;;4993663;28;20045;-47
2022/08/10 09:44:37;;;;;;;4.90;1.90;;;24.30;99.90;;;;;;4996620;28;20443;-45
2022/08/10 09:47:22;;;;;;;4.85;1.90;;;24.50;99.90;;;;;;5008871;28;20064;-48
2022/08/10 09:49:47;;;;;;;7.28;2.17;;;24.70;99.90;;;;;;4992407;28;20046;-46
2022/08/10 09:52:50;;;;;;;3.80;1.67;;;24.70;99.90;;;;;;5009460;28;20045;-45
2022/08/10 09:55:38;;;;;;;7.07;1.75;;;24.70;99.90;;;;;;5010112;28;20243;-44
2022/08/10 09:58:23;;;;;;;4.72;1.40;;;24.90;99.90;;;;;;5007337;28;20660;-45
2022/08/10 10:01:09;;;;;;;3.25;1.35;;;25.00;99.90;;;;;;4993172;28;20124;-46
2022/08/10 10:03:45;;;;;;;3.50;1.25;;;24.80;99.40;;;;;;5011281;28;20046;-46
2022/08/10 10:06:14;;;;;;;3.63;1.58;;;25.10;99.20;;;;;;5000861;28;20037;-45
2022/08/10 10:08:42;;;;;;;3.05;1.40;;;25.10;98.70;;;;;;5010331;28;20050;-47
2022/08/10 10:11:19;;;;;;;3.03;1.25;;;25.10;98.20;;;;;;4987882;28;20042;-46
2022/08/10 10:14:18;;;;;;;5.00;1.20;;;25.30;98.10;;;;;;5006815;28;20050;-44
2022/08/10 10:16:49;;;;;;;2.40;1.20;;;25.50;97.10;;;;;;5007687;28;20251;-44
2022/08/10 10:19:34;;;;;;;5.90;1.33;;;25.40;97.10;;;;;;5009321;28;21981;-43
2022/08/10 10:22:36;;;;;;;2.50;1.08;;;25.50;96.90;;;;;;5002936;28;20096;-46
2022/08/10 10:25:30;;;;;;;3.78;1.27;;;25.60;96.90;;;;;;5007270;28;20038;-45
2022/08/10 10:28:28;;;;;;;3.60;0.93;;;25.80;96.20;;;;;;5006685;28;20056;-43
2022/08/10 10:31:08;;;;;;;3.80;1.35;;;25.80;95.70;;;;;;5009211;28;20042;-44
2022/08/10 10:34:01;;;;;;;4.43;1.15;;;25.80;94.90;;;;;;5008944;28;20057;-43
2022/08/10 10:36:28;;;;;;;4.45;1.15;;;25.70;94.80;;;;;;5007539;28;20389;-44
2022/08/10 10:38:58;;;;;;;3.05;1.13;;;26.10;95.20;;;;;;5007590;28;20053;-46
2022/08/10 10:41:33;;;;;;;6.05;1.20;;;26.20;94.60;;;;;;5008635;28;20029;-42
2022/08/10 10:44:08;;;;;;;2.78;1.00;;;26.30;95.20;;;;;;5010303;28;20041;-42
2022/08/10 10:46:45;;;;;;;3.70;1.00;;;26.20;94.00;;;;;;5005799;28;20049;-43
2022/08/10 10:49:43;;;;;;;1.95;1.00;;;26.30;94.00;;;;;;5005003;28;20097;-46
2022/08/10 10:52:46;;;;;;;5.63;1.20;;;26.30;93.60;;;;;;4977382;28;20050;-46
2022/08/10 10:55:44;;;;;;;3.03;1.00;;;26.30;93.10;;;;;;5010604;28;20045;-44
2022/08/10 10:58:35;;;;;;;2.47;1.20;;;26.40;92.60;;;;;;5004773;28;20050;-47
2022/08/10 11:01:21;;;;;;;3.00;1.00;;;26.50;93.20;;;;;;5010493;28;20125;-45
2022/08/10 11:03:57;;;;;;;5.10;1.10;;;26.60;92.70;;;;;;5007517;28;20038;-45
2022/08/10 11:06:28;;;;;;;4.10;0.90;;;26.70;94.50;;;;;;5010076;28;20076;-43
2022/08/10 11:08:59;;;;;;;2.67;1.00;;;26.60;92.60;;;;;;5010591;28;20123;-45
2022/08/10 11:11:32;;;;;;;2.92;0.95;;;26.80;93.30;;;;;;5005664;28;20041;-43
2022/08/10 11:14:23;;;;;;;3.87;1.00;;;26.80;92.70;;;;;;5006187;28;20038;-45
2022/08/10 11:17:06;;;;;;;3.65;1.10;;;26.80;92.40;;;;;;5007815;28;20296;-46
2022/08/10 11:19:53;;;;;;;3.55;0.82;;;26.80;90.20;;;;;;5011612;28;20080;-46
2022/08/10 11:22:31;;;;;;;2.13;0.80;;;27.20;91.30;;;;;;5010687;28;20394;-45
2022/08/10 11:25:19;;;;;;;2.85;0.90;;;27.20;90.60;;;;;;5008710;28;20393;-45
2022/08/10 11:28:27;;;;;;;2.30;0.70;;;27.40;90.80;;;;;;5004399;28;20506;-45
2022/08/10 11:31:14;;;;;;;2.65;0.93;;;27.40;89.40;;;;;;4996498;28;20864;-44
2022/08/10 11:33:45;;;;;;;2.88;0.90;;;27.60;89.50;;;;;;5007756;28;20053;-47
2022/08/10 11:36:38;;;;;;;3.20;0.82;;;27.40;89.30;;;;;;5004303;28;20493;-45
2022/08/10 11:39:08;;;;;;;5.75;0.95;;;27.80;89.00;;;;;;5007716;28;20033;-47
2022/08/10 11:41:57;;;;;;;5.18;1.05;;;27.70;90.20;;;;;;5008088;28;20050;-46
2022/08/10 11:44:30;;;;;;;2.40;0.60;;;28.10;89.90;;;;;;5004396;28;20081;-43
2022/08/10 11:47:21;;;;;;;3.05;0.93;;;27.90;87.10;;;;;;4992610;28;20395;-47
2022/08/10 11:50:07;;;;;;;3.70;1.13;;;28.20;88.20;;;;;;4991363;28;20038;-48
2022/08/10 11:52:38;;;;;;;2.10;0.70;;;28.30;88.40;;;;;;5005499;28;20374;-48
2022/08/10 11:55:14;;;;;;;3.65;0.90;;;28.10;87.20;;;;;;4991900;28;20042;-43
2022/08/10 11:57:42;;;;;;;3.83;0.68;;;28.40;86.70;;;;;;4991345;28;20046;-46
2022/08/10 12:00:08;;;;;;;2.85;1.00;;;28.50;87.30;;;;;;5011201;28;20038;-48
2022/08/10 12:02:56;;;;;;;2.08;0.80;;;28.50;88.40;;;;;;5011122;28;20446;-46
2022/08/10 12:05:29;;;;;;;2.47;0.77;;;29.00;85.10;;;;;;5010513;28;20041;-46
2022/08/10 12:07:58;;;;;;;3.75;0.80;;;29.00;84.60;;;;;;5010718;28;20473;-45
2022/08/10 12:10:26;;;;;;;1.75;0.60;;;29.10;86.20;;;;;;4993118;28;20080;-45
2022/08/10 12:13:03;;;;;;;3.17;0.77;;;29.10;83.90;;;;;;5010107;28;20113;-44
2022/08/10 12:15:41;;;;;;;3.15;0.85;;;29.50;86.50;;;;;;5009462;28;20038;-48
2022/08/10 12:18:16;;;;;;;2.47;0.82;;;29.50;82.30;;;;;;4991628;28;20378;-44
2022/08/10 12:20:47;;;;;;;2.63;0.80;;;29.60;83.20;;;;;;5010218;28;20061;-44
2022/08/10 12:23:21;;;;;;;3.22;0.85;;;29.90;84.90;;;;;;5013385;28;20050;-45
2022/08/10 12:25:56;;;;;;;4.03;0.70;;;30.00;83.30;;;;;;4996618;28;20093;-44
2022/08/10 12:28:46;;;;;;;2.15;0.70;;;30.20;82.50;;;;;;4995450;28;20053;-48
2022/08/10 12:31:15;;;;;;;3.50;0.70;;;30.30;79.20;;;;;;4985992;28;20042;-49
2022/08/10 12:34:05;;;;;;;2.42;0.73;;;30.50;79.60;;;;;;4977731;28;20042;-43
2022/08/10 12:36:43;;;;;;;2.03;0.70;;;30.40;79.40;;;;;;4987061;28;20061;-46
2022/08/10 12:39:25;;;;;;;1.58;0.70;;;30.30;78.30;;;;;;4977774;28;20042;-45
2022/08/10 12:42:29;;;;;;;2.63;0.80;;;30.30;77.20;;;;;;4996057;28;20041;-47
2022/08/10 12:45:06;;;;;;;2.90;0.90;;;30.50;79.00;;;;;;5014642;28;20049;-45
2022/08/10 12:48:01;;;;;;;1.92;0.60;;;30.60;79.60;;;;;;5013077;28;20045;-46
2022/08/10 12:50:41;;;;;;;2.78;0.80;;;30.80;77.20;;;;;;4993640;28;20100;-49
2022/08/10 12:53:39;;;;;;;2.72;0.90;;;30.80;76.30;;;;;;5013627;28;20042;-46
2022/08/10 12:56:05;;;;;;;3.53;0.70;;;30.80;76.90;;;;;;5014442;28;20084;-45
2022/08/10 12:58:33;;;;;;;3.00;0.88;;;30.80;77.90;;;;;;5013988;28;20092;-48
2022/08/10 13:01:01;;;;;;;5.97;1.13;;;30.90;78.20;;;;;;5014052;28;20493;-45
2022/08/10 13:03:29;;;;;;;1.40;0.70;;;31.20;77.80;;;;;;5014199;28;20486;-45
2022/08/10 13:05:57;;;;;;;1.98;0.70;;;31.40;77.40;;;;;;5013543;28;20046;-46
2022/08/10 13:11:11;;;;;;;2.28;0.70;;;31.30;74.10;;;;;;5013968;28;20533;-46
2022/08/10 13:13:42;;;;;;;2.00;0.70;;;31.70;76.60;;;;;;5013698;28;20076;-44
2022/08/10 13:16:08;;;;;;;2.72;0.80;;;31.50;76.20;;;;;;4997103;28;20078;-44
2022/08/10 13:18:40;;;;;;;2.38;0.75;;;31.80;75.90;;;;;;5004461;28;20046;-46